ASN logo
Accident
Last updated: 29 April 2016
Status:Schlussbericht
Datum:Mittwoch 10 Juli 2002
Zeit:20:42
Flugzeugtyp:Silhouette image of generic SB20 model; specific model in this crash may look slightly different
Saab 2000
Fluggesellschaft:Swiss International Air Lines
Kennzeichen: HB-IZY
Werknummer: 047
Baujahr: 1997
Betriebsstunden:12303
Anzahl Zyklen der Zelle:12069
Triebwerk: 2 Allison AE2100A
Besatzung:Todesopfer: 0 / Insassen: 4
Fluggäste:Todesopfer: 0 / Insassen: 16
Gesamt:Todesopfer: 0 / Insassen: 20
Sachschaden: Zerstört
Konsequenzen: Written off (damaged beyond repair)
Unfallort:Werneuchen (   Deutschland)
Flugphase: Landung (LDG)
Betriebsart:Internationaler Linienflug
Flug von:Basel/Mulhouse-EuroAirport (BSL/LFSB), Frankreich
Flug nach:Hamburg-Fuhlsbüttel Airport (HAM/EDDH), Deutschland
Flugnummer: 850
Unfallbericht:
Swiss flight 850 departed Basel at 17:55 ­ ten minutes later than its scheduled departure time. The flight was unable to land in Hamburg owing to storm front conditions. Subsequent attempts to land at Bremen, Hannover and Berlin also had to be aborted in view of the adverse weather in the area. The crew then made an approach to Finow near Berlin, but overshot and with the fuel remaining approaching the minimum reserve, the crew asked air traffic control to urgently provide it with an open alternate airport. They were then directed to Werneuchen, a former Soviet military airfield some 60 km northeast of Berlin. Werneuchen's unlighted runway has a length of 7,300 ft/2,400 m but has no approach aids. Air traffic control warned the crew for an obstacle on the runway. This obstacle was a 3 ft/1 m earth embankment laid across the runway, some 900 m/2,700 feet past the runway threshold which was done to prevent illegal car races on the runway. The remaining runway was still used for general aviation flights. The Swiss Air Lines crew failed to see the obstacle and the Saab touched down some 300 m past the runway threshold. The aircraft collided with the embankment, causing all landing gears to be sheared off.

METAR reports for the airports around the time of the flight were:
EDDH 101720Z 28017KT 3500 TSRA FEW005 SCT010 BKN017CB 14/13 Q1008 NOSIG=
EDDH 101750Z 28019G30KT 9999 TSRA FEW005 SCT014CB BKN120 14/12 Q1009 NOSIG=
EDDW 101750Z 34010KT 8000 -RA BKN008 BKN032 13/11 Q1009 RETS NOSIG=
EDDT 101820Z VRB01KT 9999 FEW040CB SCT120 BKN260 29/17 Q1002 TEMPO 27025G55KT 2000 +TSRA BKN009 BKN015CB=


Ursachen
Der Flugunfall ist zurückzuführen auf folgende Ursachen:
Unmittelbare Ursachen
- Dimension und Intensität der Gewitterfront sowie Dynamik der Wetterentwicklung
- Unzureichende Nutzung von Ressourcen bei Entscheidungsfindungen im Fluge (pro-aktiv)
- Verlust alternativer Landemöglichkeiten bei zunehmendem Zeitdruck (reaktiv)
- Aufsetzen des Flugzeuges außerhalb der Betriebsfläche eines Flugplatzes
- Kollision mit dem Erdwall aufgrund des Nichterkennens des Hindernisses
Systemische Ursachen±
- Unzureichende Informationen über Wetterlage und -entwicklung vor und während des Fluges
- Unzureichende Informationen über den Sonderlandeplatz Werneuchen aufgrund von nicht eindeutiger Kartendarstellung sowie missverständlicher bzw. fehlender Kommunikation
- Mangelhafte Kennzeichnung /Markierung der Betriebs- bzw. Nichtbetriebsflächen des Flugplatzes

Informationsquelle:
» aerpix.net
» Swiss
» Büro für Flugunfalluntersuchungen

Official accident investigation report
cover
investigating agency: Bundesstelle für Flugunfalluntersuchung (BFU) - Germany
report status: Final
report number: BFU AX002-0/02
report released:1 October 2010
duration of investigation: 8 years and 3 months
download report: Untersuchungsbericht Saab 2000 Werneuchen (BFU AX002-0/02)

Fotos

photo of Saab 2000 HB-IZY
Add your photo of this accident or aircraft
 

Map
This map shows the airport of departure and the intended destination of the flight. The line between the airports does not display the exact flight path.
Distance from Basel/Mulhouse-EuroAirport to Hamburg-Fuhlsbüttel Airport as the crow flies is 688 km (430 miles).

languages: English Français Nederlands Deutsch Espanol

Share
Share